Baie-Comeau, Canada
Current Conditions -  °F | °C
As of 3:00 AM on Thursday 29 Jan 2015 (Local Time) from CYBC Reporting Station
Overcast Overcast  
Wind Chill: -17°   Ceiling: 5500
Heat Index: -12°   Visibility: 9mi
Dew Point: -16°   Wind: 6mph
Humidity: 73%   Direction: 230°SW
Pressure: 30.16"   Gusts: NA
Location:  49.22°N, 68.15°W
Report Text: CYBC 290800Z AUTO 23005KT 220V310 9SM OVC055 M12/M16 A3016 RMK SLP214
Loading
Personal Weather Stations






























Interactive Weather Map New forecast layout! Learn more

10-Day Weather Forecast

Advertisements
Track Severe Weather on mobile